createdAt,value
2022-10-13T00:01:21.374Z,19.10
2022-10-13T00:03:49.854Z,19.10
2022-10-13T00:06:27.506Z,19.10
2022-10-13T00:08:56.918Z,19.10
2022-10-13T00:11:27.054Z,19.10
2022-10-13T00:13:57.048Z,19.10
2022-10-13T00:16:26.215Z,19.10
2022-10-13T00:18:54.636Z,19.10
2022-10-13T00:21:24.447Z,19.10
2022-10-13T00:23:54.997Z,19.10
2022-10-13T00:26:24.444Z,19.10
2022-10-13T00:28:53.366Z,19.00
2022-10-13T00:31:23.546Z,19.00
2022-10-13T00:33:53.361Z,18.90
2022-10-13T00:36:22.369Z,18.90
2022-10-13T00:38:50.600Z,18.90
2022-10-13T00:41:20.679Z,18.90
2022-10-13T00:43:55.981Z,18.80
2022-10-13T00:46:25.914Z,18.90
2022-10-13T00:49:01.147Z,18.90
2022-10-13T00:51:39.850Z,18.90
2022-10-13T00:54:11.061Z,18.90
2022-10-13T00:56:43.243Z,18.80
2022-10-13T00:59:22.858Z,18.80
2022-10-13T01:01:51.715Z,18.80
2022-10-13T01:04:23.038Z,18.70
2022-10-13T01:06:52.491Z,18.70
2022-10-13T01:09:20.520Z,18.60
2022-10-13T01:12:04.080Z,18.50
2022-10-13T01:14:37.040Z,18.50
2022-10-13T01:17:14.559Z,18.40
2022-10-13T01:20:04.141Z,18.50
2022-10-13T01:22:46.542Z,18.50
2022-10-13T01:25:30.610Z,18.50
2022-10-13T01:28:12.875Z,18.60
2022-10-13T01:30:47.001Z,18.60
2022-10-13T01:33:22.631Z,18.60
2022-10-13T01:36:02.209Z,18.60
2022-10-13T01:38:39.078Z,18.60
2022-10-13T01:41:14.878Z,18.60
2022-10-13T01:43:49.019Z,18.50
2022-10-13T01:46:22.510Z,18.50
2022-10-13T01:48:54.458Z,18.50
2022-10-13T01:51:25.942Z,18.40
2022-10-13T01:53:54.198Z,18.40
2022-10-13T01:56:22.250Z,18.40
2022-10-13T01:58:52.361Z,18.40
2022-10-13T02:01:33.450Z,18.30
2022-10-13T02:04:18.990Z,18.40
2022-10-13T02:06:52.410Z,18.40
2022-10-13T02:09:35.271Z,18.40
2022-10-13T02:12:08.927Z,18.40
2022-10-13T02:14:42.667Z,18.40
2022-10-13T02:17:12.680Z,18.40
2022-10-13T02:19:43.830Z,18.30
2022-10-13T02:22:15.270Z,18.30
2022-10-13T02:24:43.477Z,18.30
2022-10-13T02:27:11.627Z,18.30
2022-10-13T02:29:50.871Z,18.30
2022-10-13T02:32:21.972Z,18.30
2022-10-13T02:34:50.149Z,18.30
2022-10-13T02:37:18.439Z,18.20
2022-10-13T02:39:46.469Z,18.20
2022-10-13T02:42:15.001Z,18.20
2022-10-13T02:44:43.018Z,18.10
2022-10-13T02:47:10.889Z,18.10
2022-10-13T02:49:40.399Z,18.10
2022-10-13T02:52:08.587Z,18.10
2022-10-13T02:54:43.277Z,18.10
2022-10-13T02:57:11.371Z,18.00
2022-10-13T02:59:39.229Z,17.90
2022-10-13T03:02:07.262Z,17.90
2022-10-13T03:04:35.759Z,17.90
2022-10-13T03:07:05.670Z,17.90
2022-10-13T03:09:33.968Z,17.80
2022-10-13T03:12:02.047Z,17.60
2022-10-13T03:14:30.708Z,17.70
2022-10-13T03:16:58.739Z,17.70
2022-10-13T03:19:26.630Z,17.80
2022-10-13T03:21:54.660Z,17.90
2022-10-13T03:24:24.069Z,17.90
2022-10-13T03:26:52.187Z,17.80
2022-10-13T03:29:21.087Z,17.80
2022-10-13T03:31:49.101Z,17.80
2022-10-13T03:34:18.042Z,17.80
2022-10-13T03:36:47.578Z,17.80
2022-10-13T03:39:15.969Z,17.80
2022-10-13T03:41:46.468Z,17.80
2022-10-13T03:44:14.852Z,17.70
2022-10-13T03:46:42.877Z,17.70
2022-10-13T03:49:11.400Z,17.70
2022-10-13T03:51:39.460Z,17.60
2022-10-13T03:54:07.470Z,17.60
2022-10-13T03:56:36.189Z,17.40
2022-10-13T03:59:05.710Z,17.50
2022-10-13T04:01:34.369Z,17.40
2022-10-13T04:04:03.140Z,17.40
2022-10-13T04:06:31.993Z,17.40
2022-10-13T04:08:59.994Z,17.40
2022-10-13T04:11:28.058Z,17.40
2022-10-13T04:13:57.268Z,17.30
2022-10-13T04:16:28.893Z,17.30
2022-10-13T04:18:59.719Z,17.30
2022-10-13T04:21:28.797Z,17.20
2022-10-13T04:24:00.138Z,17.20
2022-10-13T04:26:31.708Z,17.20
2022-10-13T04:29:05.051Z,17.20
2022-10-13T04:31:35.522Z,17.20
2022-10-13T04:34:03.761Z,17.20
2022-10-13T04:36:31.520Z,17.20
2022-10-13T04:38:59.398Z,17.20
2022-10-13T04:41:27.129Z,17.20
2022-10-13T04:43:55.439Z,17.20
2022-10-13T04:46:25.566Z,17.10
2022-10-13T04:48:56.701Z,17.10
2022-10-13T04:51:29.880Z,17.10
2022-10-13T04:53:58.510Z,17.10
2022-10-13T04:56:26.429Z,17.10
2022-10-13T04:58:54.511Z,17.10
2022-10-13T05:01:24.313Z,17.10
2022-10-13T05:03:53.040Z,17.10
2022-10-13T05:06:24.310Z,17.00
2022-10-13T05:08:56.501Z,17.00
2022-10-13T05:11:26.701Z,17.00
2022-10-13T05:13:55.140Z,17.00
2022-10-13T05:16:23.836Z,16.90
2022-10-13T05:18:53.801Z,16.90
2022-10-13T05:21:24.534Z,17.00
2022-10-13T05:23:59.545Z,16.90
2022-10-13T05:26:29.279Z,16.90
2022-10-13T05:28:57.305Z,16.80
2022-10-13T05:31:27.943Z,16.80
2022-10-13T05:33:57.194Z,16.80
2022-10-13T05:36:30.324Z,16.80
2022-10-13T05:39:00.044Z,16.80
2022-10-13T05:41:29.153Z,16.70
2022-10-13T05:44:00.804Z,16.70
2022-10-13T05:46:28.833Z,16.80
2022-10-13T05:48:56.634Z,16.60
2022-10-13T05:51:28.533Z,16.50
2022-10-13T05:54:05.564Z,16.60
2022-10-13T05:56:37.713Z,16.50
2022-10-13T05:59:08.631Z,16.40
2022-10-13T06:01:39.685Z,16.40
2022-10-13T06:04:10.956Z,16.50
2022-10-13T06:06:40.468Z,16.50
2022-10-13T06:09:08.379Z,16.50
2022-10-13T06:11:36.168Z,16.50
2022-10-13T06:14:04.089Z,16.50
2022-10-13T06:16:46.845Z,16.60
2022-10-13T06:19:43.332Z,16.70
2022-10-13T06:22:12.602Z,16.80
2022-10-13T06:24:40.251Z,16.80
2022-10-13T06:27:10.032Z,16.80
2022-10-13T06:29:37.863Z,16.80
2022-10-13T06:32:06.140Z,16.90
2022-10-13T06:34:33.952Z,16.80
2022-10-13T06:37:01.842Z,16.80
2022-10-13T06:39:30.951Z,16.70
2022-10-13T06:42:01.725Z,16.60
2022-10-13T06:44:38.110Z,16.70
2022-10-13T06:47:05.961Z,16.70
2022-10-13T06:49:33.690Z,16.60
2022-10-13T06:52:02.320Z,16.70
2022-10-13T06:54:31.427Z,16.80
2022-10-13T06:56:59.261Z,16.80
2022-10-13T06:59:28.002Z,16.90
2022-10-13T07:01:55.849Z,17.00
2022-10-13T07:04:24.271Z,17.00
2022-10-13T07:06:52.940Z,17.00
2022-10-13T07:09:20.800Z,17.00
2022-10-13T07:11:50.490Z,17.10
2022-10-13T07:14:18.320Z,17.30
2022-10-13T07:16:47.753Z,17.30
2022-10-13T07:19:15.541Z,17.30
2022-10-13T07:21:43.821Z,17.30
2022-10-13T07:24:12.552Z,17.30
2022-10-13T07:26:40.391Z,17.40
2022-10-13T07:29:09.964Z,17.50
2022-10-13T07:31:37.802Z,17.50
2022-10-13T07:34:05.782Z,17.60
2022-10-13T07:36:34.080Z,17.60
2022-10-13T07:39:03.390Z,17.70
2022-10-13T07:41:32.079Z,17.70
2022-10-13T07:43:59.752Z,17.80
2022-10-13T07:46:29.857Z,17.90
2022-10-13T07:48:57.922Z,17.90
2022-10-13T07:51:25.602Z,18.10
2022-10-13T07:53:53.520Z,18.10
2022-10-13T07:56:21.270Z,18.20
2022-10-13T07:58:49.230Z,18.20
2022-10-13T08:01:17.518Z,18.40
2022-10-13T08:03:50.088Z,18.50
2022-10-13T08:06:21.301Z,18.50
2022-10-13T08:08:51.664Z,18.60
2022-10-13T08:11:20.412Z,18.70
2022-10-13T08:13:49.472Z,18.70
2022-10-13T08:16:21.487Z,18.80
2022-10-13T08:18:50.871Z,18.90
2022-10-13T08:24:10.451Z,19.00
2022-10-13T08:26:38.390Z,19.10
2022-10-13T08:29:23.391Z,19.10
2022-10-13T08:32:01.821Z,19.10
2022-10-13T08:34:31.123Z,19.20
2022-10-13T08:37:00.383Z,19.30
2022-10-13T08:39:28.132Z,19.40
2022-10-13T08:41:57.985Z,19.40
2022-10-13T08:45:16.054Z,19.50
2022-10-13T08:47:38.664Z,19.50
2022-10-13T08:50:13.816Z,19.60
2022-10-13T08:52:48.384Z,19.70
2022-10-13T08:55:27.134Z,19.70
2022-10-13T08:57:55.003Z,19.80
2022-10-13T09:00:27.628Z,19.90
2022-10-13T09:03:07.718Z,19.90
2022-10-13T09:05:43.523Z,20.00
2022-10-13T09:08:17.789Z,20.10
2022-10-13T09:10:50.162Z,20.20
2022-10-13T09:13:20.256Z,20.20
2022-10-13T09:15:50.752Z,20.30
2022-10-13T09:18:18.623Z,20.40
2022-10-13T09:20:47.809Z,20.50
2022-10-13T09:23:20.734Z,20.50
2022-10-13T09:25:50.927Z,20.60
2022-10-13T09:28:22.602Z,20.70
2022-10-13T09:31:03.307Z,20.80
2022-10-13T09:33:35.863Z,20.90
2022-10-13T09:36:14.052Z,21.00
2022-10-13T09:38:44.453Z,21.10
2022-10-13T09:41:20.030Z,21.20
2022-10-13T09:44:08.198Z,21.20
2022-10-13T09:46:39.516Z,21.30
2022-10-13T09:49:21.490Z,21.40
2022-10-13T09:51:50.785Z,21.40
2022-10-13T09:54:27.976Z,21.50
2022-10-13T09:57:01.648Z,21.60
2022-10-13T09:59:34.769Z,21.70
2022-10-13T10:02:18.137Z,21.80
2022-10-13T10:04:49.593Z,22.10
2022-10-13T10:07:22.661Z,22.10
2022-10-13T10:09:56.878Z,22.20
2022-10-13T10:12:30.589Z,22.30
2022-10-13T10:14:58.368Z,22.30
2022-10-13T10:17:36.940Z,22.40
2022-10-13T10:20:24.479Z,22.50
2022-10-13T10:23:01.178Z,22.60
2022-10-13T10:25:34.309Z,22.60
2022-10-13T10:28:27.978Z,22.60
2022-10-13T10:31:06.858Z,22.70
2022-10-13T10:33:45.308Z,22.70
2022-10-13T10:36:18.740Z,22.80
2022-10-13T10:38:52.138Z,22.80
2022-10-13T10:41:34.948Z,22.80
2022-10-13T10:44:05.251Z,22.80
2022-10-13T10:46:37.057Z,23.00
2022-10-13T10:49:14.428Z,23.10
2022-10-13T10:51:42.655Z,23.20
2022-10-13T10:54:27.140Z,23.40
2022-10-13T10:57:00.679Z,23.70
2022-10-13T10:59:41.412Z,23.80
2022-10-13T11:02:24.846Z,23.90
2022-10-13T11:04:54.487Z,24.10
2022-10-13T11:07:58.046Z,24.30
2022-10-13T11:10:28.637Z,24.30
2022-10-13T11:13:27.405Z,24.40
2022-10-13T11:15:55.783Z,24.50
2022-10-13T11:19:06.180Z,24.50
2022-10-13T11:22:23.192Z,24.40
2022-10-13T11:25:33.366Z,24.50
2022-10-13T11:28:43.596Z,24.40
2022-10-13T11:31:48.443Z,24.50
2022-10-13T11:34:31.686Z,24.80
2022-10-13T11:37:02.073Z,25.00
2022-10-13T11:40:00.202Z,25.20
2022-10-13T11:43:02.717Z,25.30
2022-10-13T11:45:51.831Z,25.40
2022-10-13T11:48:54.761Z,25.40
2022-10-13T11:51:31.877Z,25.50
2022-10-13T11:54:11.505Z,25.70
2022-10-13T11:56:48.693Z,25.80
2022-10-13T11:59:26.274Z,25.90
2022-10-13T12:01:56.714Z,26.10
2022-10-13T12:04:26.143Z,26.20
2022-10-13T12:06:58.765Z,26.20
2022-10-13T12:09:27.077Z,26.20
2022-10-13T12:12:01.266Z,26.40
2022-10-13T12:14:33.372Z,26.50
2022-10-13T12:17:04.418Z,26.50
2022-10-13T12:19:33.108Z,26.60
2022-10-13T12:22:02.324Z,26.60
2022-10-13T12:24:31.654Z,26.80
2022-10-13T12:26:59.833Z,26.80
2022-10-13T12:29:33.380Z,26.70
2022-10-13T12:32:19.285Z,26.90
2022-10-13T12:34:47.331Z,27.00
2022-10-13T12:37:26.253Z,27.20
2022-10-13T12:39:55.812Z,27.30
2022-10-13T12:42:29.751Z,27.30
2022-10-13T12:44:58.543Z,27.40
2022-10-13T12:47:49.483Z,27.30
2022-10-13T12:50:38.397Z,27.50
2022-10-13T12:53:17.352Z,27.40
2022-10-13T12:55:59.109Z,27.60
2022-10-13T12:58:29.474Z,27.70
2022-10-13T13:01:25.882Z,27.70
2022-10-13T13:03:58.071Z,27.40
2022-10-13T13:06:32.952Z,27.30
2022-10-13T13:09:22.025Z,27.00
2022-10-13T13:12:04.422Z,26.90
2022-10-13T13:14:37.841Z,26.90
2022-10-13T13:17:09.121Z,26.90
2022-10-13T13:19:39.122Z,26.70
2022-10-13T13:22:09.548Z,26.50
2022-10-13T13:24:40.857Z,26.50
2022-10-13T13:27:17.349Z,26.60
2022-10-13T13:29:45.873Z,26.60
2022-10-13T13:32:15.334Z,26.70
2022-10-13T13:34:45.152Z,26.80
2022-10-13T13:37:17.019Z,26.80
2022-10-13T13:39:46.262Z,26.90
2022-10-13T13:42:15.402Z,26.90
2022-10-13T13:44:44.141Z,26.90
2022-10-13T13:47:20.382Z,26.90
2022-10-13T13:49:50.603Z,26.90
2022-10-13T13:52:18.912Z,26.80
2022-10-13T13:54:46.952Z,26.70
2022-10-13T13:57:15.272Z,26.60
2022-10-13T13:59:43.403Z,26.50
2022-10-13T14:02:15.140Z,26.30
2022-10-13T14:04:43.103Z,26.30
2022-10-13T14:07:13.053Z,26.20
2022-10-13T14:09:40.792Z,26.20
2022-10-13T14:12:10.876Z,26.10
2022-10-13T14:14:38.733Z,26.00
2022-10-13T14:17:06.770Z,26.00
2022-10-13T14:19:34.652Z,26.00
2022-10-13T14:22:05.867Z,26.10
2022-10-13T14:24:38.443Z,26.00
2022-10-13T14:27:09.233Z,25.90
2022-10-13T14:29:37.397Z,26.00
2022-10-13T14:32:05.429Z,26.20
2022-10-13T14:34:33.809Z,26.70
2022-10-13T14:37:01.712Z,26.90
2022-10-13T14:39:29.469Z,26.80
2022-10-13T14:41:58.711Z,27.00
2022-10-13T14:44:26.511Z,27.30
2022-10-13T14:46:54.301Z,27.40
2022-10-13T14:49:22.240Z,27.70
2022-10-13T14:51:51.611Z,27.90
2022-10-13T14:54:19.357Z,27.80
2022-10-13T14:56:47.175Z,27.40
2022-10-13T14:59:16.557Z,27.20
2022-10-13T15:01:46.195Z,26.70
2022-10-13T15:04:14.096Z,26.50
2022-10-13T15:06:42.019Z,26.20
2022-10-13T15:09:10.739Z,26.00
2022-10-13T15:11:38.757Z,26.00
2022-10-13T15:14:07.646Z,26.30
2022-10-13T15:16:38.092Z,26.70
2022-10-13T15:19:06.268Z,27.30
2022-10-13T15:21:34.096Z,27.00
2022-10-13T15:24:02.217Z,26.80
2022-10-13T15:26:30.036Z,26.80
2022-10-13T15:28:57.785Z,26.50
2022-10-13T15:31:25.726Z,26.50
2022-10-13T15:33:55.178Z,26.30
2022-10-13T15:36:25.926Z,26.00
2022-10-13T15:38:53.745Z,25.70
2022-10-13T15:41:23.279Z,25.40
2022-10-13T15:43:51.194Z,25.20
2022-10-13T15:46:24.518Z,24.90
2022-10-13T15:48:55.424Z,24.70
2022-10-13T15:51:24.746Z,24.50
2022-10-13T15:53:52.422Z,24.30
2022-10-13T15:56:20.165Z,24.20
2022-10-13T15:58:47.833Z,24.10
2022-10-13T16:01:15.839Z,24.00
2022-10-13T16:03:43.865Z,24.00
2022-10-13T16:06:14.590Z,24.10
2022-10-13T16:08:45.652Z,24.00
2022-10-13T16:11:16.065Z,24.00
2022-10-13T16:13:47.002Z,23.90
2022-10-13T16:16:15.590Z,23.80
2022-10-13T16:18:44.447Z,23.90
2022-10-13T16:21:19.085Z,23.80
2022-10-13T16:23:47.504Z,23.80
2022-10-13T16:26:15.854Z,23.60
2022-10-13T16:28:43.839Z,23.40
2022-10-13T16:31:13.677Z,23.30
2022-10-13T16:33:44.446Z,23.20
2022-10-13T16:36:16.061Z,23.10
2022-10-13T16:38:44.647Z,23.10
2022-10-13T16:41:14.802Z,23.10
2022-10-13T16:43:43.723Z,23.20
2022-10-13T16:46:13.675Z,23.10
2022-10-13T16:48:42.693Z,22.90
2022-10-13T16:51:13.465Z,22.70
2022-10-13T16:53:49.857Z,22.60
2022-10-13T16:56:24.574Z,22.50
2022-10-13T16:58:55.095Z,22.50
2022-10-13T17:01:25.456Z,22.50
2022-10-13T17:03:54.486Z,22.30
2022-10-13T17:06:26.420Z,22.10
2022-10-13T17:09:00.815Z,21.80
2022-10-13T17:11:31.385Z,21.80
2022-10-13T17:14:00.491Z,21.70
2022-10-13T17:16:31.716Z,21.70
2022-10-13T17:19:00.036Z,21.60
2022-10-13T17:21:40.315Z,21.50
2022-10-13T17:24:12.107Z,21.50
2022-10-13T17:26:40.297Z,21.40
2022-10-13T17:29:08.298Z,21.40
2022-10-13T17:31:36.485Z,21.30
2022-10-13T17:34:20.200Z,21.30
2022-10-13T17:36:49.194Z,21.20
2022-10-13T17:39:18.753Z,21.20
2022-10-13T17:44:16.518Z,21.10
2022-10-13T17:46:44.635Z,21.20
2022-10-13T17:49:13.518Z,21.30
2022-10-13T17:51:42.493Z,21.60
2022-10-13T17:54:15.697Z,21.50
2022-10-13T17:56:46.177Z,21.60
2022-10-13T17:59:14.725Z,21.70
2022-10-13T18:01:43.492Z,21.70
2022-10-13T18:04:13.615Z,21.70
2022-10-13T18:06:44.296Z,21.70
2022-10-13T18:09:16.796Z,21.70
2022-10-13T18:11:50.657Z,21.70
2022-10-13T18:14:20.346Z,21.60
2022-10-13T18:16:49.762Z,21.50
2022-10-13T18:19:18.140Z,21.60
2022-10-13T18:21:46.291Z,21.70
2022-10-13T18:24:14.567Z,21.70
2022-10-13T18:26:42.687Z,21.70
2022-10-13T18:29:13.400Z,21.70
2022-10-13T18:31:42.262Z,21.70
2022-10-13T18:34:12.957Z,21.70
2022-10-13T18:36:43.008Z,21.60
2022-10-13T18:39:13.878Z,21.60
2022-10-13T18:41:44.134Z,21.60
2022-10-13T18:44:15.611Z,21.60
2022-10-13T18:46:43.686Z,21.60
2022-10-13T18:49:13.971Z,21.60
2022-10-13T18:51:44.228Z,21.50
2022-10-13T18:54:12.743Z,21.50
2022-10-13T18:56:40.695Z,21.50
2022-10-13T18:59:10.672Z,21.50
2022-10-13T19:01:41.326Z,21.40
2022-10-13T19:04:11.475Z,21.40
2022-10-13T19:06:40.696Z,21.40
2022-10-13T19:09:11.612Z,21.30
2022-10-13T19:11:40.249Z,21.30
2022-10-13T19:14:11.603Z,21.20
2022-10-13T19:16:43.004Z,21.20
2022-10-13T19:19:11.606Z,21.20
2022-10-13T19:21:39.974Z,21.20
2022-10-13T19:24:11.000Z,21.20
2022-10-13T19:26:39.796Z,21.20
2022-10-13T19:29:09.939Z,21.20
2022-10-13T19:31:39.302Z,21.20
2022-10-13T19:34:13.087Z,21.20
2022-10-13T19:39:15.010Z,21.10
2022-10-13T19:41:44.628Z,21.10
2022-10-13T19:44:12.913Z,21.00
2022-10-13T19:46:41.943Z,21.00
2022-10-13T19:49:12.314Z,20.90
2022-10-13T19:51:46.339Z,20.90
2022-10-13T19:54:14.464Z,20.90
2022-10-13T19:56:47.726Z,20.90
2022-10-13T19:59:17.632Z,20.90
2022-10-13T20:01:45.866Z,20.90
2022-10-13T20:04:18.177Z,20.90
2022-10-13T20:06:46.495Z,20.80
2022-10-13T20:09:15.124Z,20.80
2022-10-13T20:11:45.830Z,20.70
2022-10-13T20:14:14.503Z,20.70
2022-10-13T20:16:42.912Z,20.70
2022-10-13T20:19:13.036Z,20.60
2022-10-13T20:21:44.255Z,20.40
2022-10-13T20:24:12.487Z,20.20
2022-10-13T20:26:41.292Z,20.30
2022-10-13T20:29:09.587Z,20.40
2022-10-13T20:31:37.917Z,20.50
2022-10-13T20:34:06.031Z,20.50
2022-10-13T20:36:38.514Z,20.50
2022-10-13T20:39:09.356Z,20.40
2022-10-13T20:41:37.228Z,20.50
2022-10-13T20:44:05.559Z,20.50
2022-10-13T20:46:34.374Z,20.40
2022-10-13T20:49:11.396Z,20.30
2022-10-13T20:51:40.222Z,20.30
2022-10-13T20:54:10.568Z,20.20
2022-10-13T20:56:39.078Z,20.20
2022-10-13T20:59:09.039Z,20.20
2022-10-13T21:01:37.415Z,20.10
2022-10-13T21:04:05.386Z,20.10
2022-10-13T21:06:33.556Z,20.10
2022-10-13T21:09:02.298Z,20.10
2022-10-13T21:11:31.760Z,20.10
2022-10-13T21:13:59.544Z,20.00
2022-10-13T21:16:29.250Z,20.00
2022-10-13T21:18:58.657Z,20.00
2022-10-13T21:21:27.782Z,20.00
2022-10-13T21:23:57.618Z,19.90
2022-10-13T21:26:26.945Z,19.90
2022-10-13T21:28:56.491Z,19.80
2022-10-13T21:31:25.217Z,19.80
2022-10-13T21:33:53.549Z,19.80
2022-10-13T21:36:23.856Z,19.80
2022-10-13T21:38:53.677Z,19.80
2022-10-13T21:41:21.968Z,19.70
2022-10-13T21:43:50.241Z,19.70
2022-10-13T21:46:22.155Z,19.60
2022-10-13T21:48:54.341Z,19.70
2022-10-13T21:51:23.878Z,19.60
2022-10-13T21:53:53.134Z,19.60
2022-10-13T21:56:22.886Z,19.50
2022-10-13T21:58:50.643Z,19.50
2022-10-13T22:01:20.488Z,19.40
2022-10-13T22:03:48.898Z,19.40
2022-10-13T22:06:19.949Z,19.30
2022-10-13T22:08:50.568Z,19.30
2022-10-13T22:11:25.862Z,19.20
2022-10-13T22:13:55.613Z,19.30
2022-10-13T22:16:27.282Z,19.20
2022-10-13T22:18:56.702Z,19.20
2022-10-13T22:21:25.839Z,19.10
2022-10-13T22:23:56.727Z,19.00
2022-10-13T22:26:24.646Z,19.10
2022-10-13T22:28:52.829Z,19.10
2022-10-13T22:31:20.927Z,19.00
2022-10-13T22:33:53.818Z,19.10
2022-10-13T22:36:23.679Z,19.10
2022-10-13T22:38:53.024Z,19.10
2022-10-13T22:41:21.071Z,19.10
2022-10-13T22:43:50.838Z,19.10
2022-10-13T22:46:22.898Z,19.00
2022-10-13T22:48:52.167Z,18.90
2022-10-13T22:51:21.879Z,18.90
2022-10-13T22:53:50.067Z,19.00
2022-10-13T22:56:19.214Z,19.10
2022-10-13T22:58:50.079Z,19.00
2022-10-13T23:01:17.893Z,19.00
2022-10-13T23:03:48.507Z,18.90
2022-10-13T23:06:20.755Z,18.70
2022-10-13T23:08:48.841Z,18.70
2022-10-13T23:11:17.061Z,18.70
2022-10-13T23:13:44.993Z,18.70
2022-10-13T23:16:16.193Z,18.60
2022-10-13T23:18:44.278Z,18.60
2022-10-13T23:21:27.377Z,18.60
2022-10-13T23:23:56.632Z,18.60
2022-10-13T23:26:25.106Z,18.50
2022-10-13T23:28:55.336Z,18.50
2022-10-13T23:31:23.113Z,18.40
2022-10-13T23:33:50.733Z,18.40
2022-10-13T23:36:20.507Z,18.50
2022-10-13T23:38:56.868Z,18.60
2022-10-13T23:41:25.247Z,18.50
2022-10-13T23:43:52.881Z,18.50
2022-10-13T23:46:21.316Z,18.50
2022-10-13T23:48:48.993Z,18.50
2022-10-13T23:51:18.655Z,18.50
2022-10-13T23:53:46.596Z,18.40
2022-10-13T23:56:17.103Z,18.30
2022-10-13T23:58:44.990Z,18.20
